Time;durP1;ratioP1;P1;durP2;ratioP2;P2;SDS_P1;SDS_P2;PMS_P1;PMS_P2;Temp;Humidity;BMP_temperature;BMP_pressure;BME280_temperature;BME280_humidity;BME280_pressure;Samples;Min_cycle;Max_cycle;Signal;HPM_P1;HPM_P2
2023/02/02 00:04:00;;;;;;;10.10;1.45;;;3.70;99.90;;;;;;8237135;28;20035;-78
2023/02/02 00:08:01;;;;;;;3.85;0.98;;;3.70;99.90;;;;;;8229975;28;20498;-79
2023/02/02 00:12:02;;;;;;;3.63;1.20;;;3.70;99.90;;;;;;8228732;28;20124;-78
2023/02/02 00:16:27;;;;;;;3.42;1.02;;;3.70;99.90;;;;;;8220691;28;20027;-79
2023/02/02 00:20:28;;;;;;;7.97;1.35;;;3.80;99.90;;;;;;8244960;28;20090;-80
2023/02/02 00:24:28;;;;;;;6.35;1.65;;;3.70;99.90;;;;;;8231230;28;20023;-78
2023/02/02 00:28:29;;;;;;;4.40;1.73;;;3.70;99.90;;;;;;8234449;28;20034;-78
2023/02/02 00:32:29;;;;;;;6.60;1.17;;;3.70;99.90;;;;;;8236251;28;20039;-79
2023/02/02 00:36:30;;;;;;;1.65;1.08;;;3.70;99.90;;;;;;8236838;28;20038;-80
2023/02/02 00:40:30;;;;;;;5.20;1.05;;;3.80;99.90;;;;;;8233319;28;20027;-78
2023/02/02 00:48:50;;;;;;;4.93;1.27;;;3.70;99.90;;;;;;8236625;28;20029;-79
2023/02/02 00:52:51;;;;;;;6.28;1.67;;;3.60;99.90;;;;;;8234928;28;20034;-79
2023/02/02 00:56:52;;;;;;;2.00;0.88;;;3.60;99.90;;;;;;8229405;28;20029;-78
2023/02/02 01:00:52;;;;;;;7.95;1.20;;;3.60;99.90;;;;;;8235484;28;20495;-78
2023/02/02 01:04:53;;;;;;;3.15;1.00;;;3.60;99.90;;;;;;8234109;28;20058;-80
2023/02/02 01:08:53;;;;;;;6.43;1.88;;;3.60;99.90;;;;;;8234464;28;20487;-78
2023/02/02 01:12:54;;;;;;;3.65;0.90;;;3.70;99.90;;;;;;8233726;28;20023;-78
2023/02/02 01:16:54;;;;;;;3.00;1.48;;;3.70;99.90;;;;;;8232632;28;20078;-79
2023/02/02 01:21:00;;;;;;;2.58;1.23;;;3.50;99.90;;;;;;8227063;28;20022;-78
2023/02/02 01:25:01;;;;;;;2.72;1.30;;;3.60;99.90;;;;;;8220814;28;20034;-80
2023/02/02 01:29:01;;;;;;;4.72;1.40;;;3.50;99.90;;;;;;8233594;28;20037;-77
2023/02/02 01:33:02;;;;;;;8.98;2.25;;;3.50;99.90;;;;;;8233787;28;20058;-79
2023/02/02 01:37:02;;;;;;;4.45;1.67;;;3.60;99.90;;;;;;8233101;28;20046;-79
2023/02/02 01:41:03;;;;;;;1.52;0.57;;;3.50;99.90;;;;;;8234277;28;20114;-79
2023/02/02 01:45:16;;;;;;;6.68;1.27;;;3.50;99.90;;;;;;8232631;28;20122;-79
2023/02/02 01:49:19;;;;;;;4.00;1.52;;;3.50;99.90;;;;;;8235108;28;20022;-79
2023/02/02 01:53:21;;;;;;;3.72;1.50;;;3.50;99.90;;;;;;8239775;28;20089;-79
2023/02/02 01:57:37;;;;;;;3.85;1.33;;;3.50;99.90;;;;;;8238814;28;20252;-80
2023/02/02 02:01:37;;;;;;;5.15;1.33;;;3.50;99.90;;;;;;8244926;28;20107;-79
2023/02/02 02:05:44;;;;;;;8.98;1.38;;;3.60;99.90;;;;;;8234712;28;20023;-78
2023/02/02 02:09:45;;;;;;;7.88;1.55;;;3.50;99.90;;;;;;8242214;28;20014;-79
2023/02/02 02:18:39;;;;;;;2.37;1.17;;;3.60;99.90;;;;;;8242927;28;20034;-79
2023/02/02 02:27:42;;;;;;;4.55;1.38;;;3.60;99.90;;;;;;8243020;28;20057;-79
2023/02/02 02:32:22;;;;;;;8.50;1.77;;;3.60;99.90;;;;;;8241862;28;20406;-79
2023/02/02 02:36:49;;;;;;;4.13;1.70;;;3.60;99.90;;;;;;8218330;28;20027;-79
2023/02/02 02:41:09;;;;;;;6.72;1.50;;;3.50;99.90;;;;;;8239622;28;20033;-79
2023/02/02 02:45:11;;;;;;;7.97;1.13;;;3.60;99.90;;;;;;8237442;28;20027;-80
2023/02/02 02:49:13;;;;;;;6.45;1.38;;;3.50;99.90;;;;;;8237716;28;20082;-79
2023/02/02 02:53:20;;;;;;;4.03;1.08;;;3.40;99.90;;;;;;8240810;28;20023;-79
2023/02/02 02:57:57;;;;;;;4.35;1.58;;;3.40;99.90;;;;;;8236399;28;20035;-80
2023/02/02 03:02:27;;;;;;;1.73;1.00;;;3.40;99.90;;;;;;8238127;28;20398;-77
2023/02/02 03:06:46;;;;;;;6.57;0.90;;;3.30;99.90;;;;;;8236176;28;20063;-80
2023/02/02 03:10:47;;;;;;;1.05;0.60;;;3.40;99.90;;;;;;8237003;28;20019;-80
2023/02/02 03:14:48;;;;;;;3.75;1.00;;;3.40;99.90;;;;;;8235894;28;20030;-79
2023/02/02 03:18:48;;;;;;;3.00;1.00;;;3.60;99.90;;;;;;8235608;28;20023;-79
2023/02/02 03:22:49;;;;;;;5.25;1.05;;;3.60;99.90;;;;;;8238359;28;20511;-80
2023/02/02 03:26:50;;;;;;;6.10;1.05;;;3.70;99.90;;;;;;8238522;28;20019;-78
2023/02/02 03:30:52;;;;;;;7.60;2.00;;;3.80;99.90;;;;;;8232463;28;20398;-79
2023/02/02 03:34:52;;;;;;;6.32;1.35;;;3.70;99.90;;;;;;8232646;28;20027;-79
2023/02/02 03:38:53;;;;;;;3.45;1.23;;;3.70;99.90;;;;;;8231140;28;20026;-79
2023/02/02 03:42:54;;;;;;;10.10;1.42;;;3.70;99.90;;;;;;8231246;28;20031;-79
2023/02/02 03:46:55;;;;;;;5.30;1.90;;;3.60;99.90;;;;;;8230911;28;20049;-79
2023/02/02 03:50:56;;;;;;;3.70;1.17;;;3.70;99.90;;;;;;8230886;28;20376;-79
2023/02/02 03:54:56;;;;;;;5.25;1.40;;;3.70;99.90;;;;;;8230904;28;20031;-79
2023/02/02 03:58:57;;;;;;;6.35;1.10;;;3.70;99.90;;;;;;8232777;28;20613;-79
2023/02/02 04:02:57;;;;;;;3.97;1.30;;;3.60;99.90;;;;;;8234717;28;20030;-79
2023/02/02 04:06:58;;;;;;;5.13;1.33;;;3.70;99.90;;;;;;8223919;28;20027;-79
2023/02/02 04:10:59;;;;;;;4.78;0.63;;;3.70;99.90;;;;;;8230419;28;20034;-79
2023/02/02 04:14:59;;;;;;;3.88;1.20;;;3.60;99.90;;;;;;8223857;28;20035;-78
2023/02/02 04:19:00;;;;;;;7.32;1.30;;;3.50;99.90;;;;;;8230467;28;20026;-79
2023/02/02 04:23:00;;;;;;;3.38;0.90;;;3.40;99.90;;;;;;8230807;28;20046;-79
2023/02/02 04:27:01;;;;;;;4.60;1.23;;;3.40;99.90;;;;;;8229709;28;20033;-78
2023/02/02 04:31:01;;;;;;;4.25;1.35;;;3.40;99.90;;;;;;8224244;28;20042;-78
2023/02/02 04:35:02;;;;;;;5.90;1.10;;;3.60;99.90;;;;;;8231457;28;20110;-79
2023/02/02 04:39:03;;;;;;;4.10;1.40;;;3.60;99.90;;;;;;8217302;28;20040;-78
2023/02/02 04:43:03;;;;;;;4.70;1.17;;;3.50;99.90;;;;;;8214646;28;20034;-79
2023/02/02 04:47:04;;;;;;;8.38;1.48;;;3.60;99.90;;;;;;8215538;28;20038;-79
2023/02/02 04:51:07;;;;;;;4.05;1.42;;;3.60;99.90;;;;;;8218526;28;20185;-79
2023/02/02 04:55:08;;;;;;;2.80;1.13;;;3.60;99.90;;;;;;8217249;28;20031;-79
2023/02/02 04:59:08;;;;;;;7.88;1.08;;;3.60;99.90;;;;;;8228831;28;20066;-79
2023/02/02 05:03:09;;;;;;;9.75;1.13;;;3.60;99.90;;;;;;8221606;28;20042;-79
2023/02/02 05:07:09;;;;;;;1.58;1.00;;;3.60;99.90;;;;;;8221148;28;20023;-79
2023/02/02 05:11:16;;;;;;;4.30;1.60;;;3.60;99.90;;;;;;8228322;28;20058;-79
2023/02/02 05:15:16;;;;;;;9.55;1.70;;;3.50;99.90;;;;;;8225913;28;20027;-78
2023/02/02 05:19:17;;;;;;;3.72;1.73;;;3.50;99.90;;;;;;8216839;28;20062;-78
2023/02/02 05:23:18;;;;;;;4.50;1.15;;;3.50;99.90;;;;;;8226988;28;20035;-79
2023/02/02 05:27:18;;;;;;;3.58;1.15;;;3.50;99.90;;;;;;8226786;28;20458;-78
2023/02/02 05:31:19;;;;;;;3.75;1.08;;;3.30;99.90;;;;;;8224778;28;20038;-79
2023/02/02 05:35:20;;;;;;;4.78;1.63;;;3.30;99.90;;;;;;8228075;28;20098;-79
2023/02/02 05:39:20;;;;;;;4.55;0.82;;;3.20;99.90;;;;;;8209780;28;20097;-78
2023/02/02 05:43:25;;;;;;;4.63;1.20;;;3.20;99.90;;;;;;8226139;28;20110;-79
2023/02/02 05:47:25;;;;;;;7.82;1.50;;;3.10;99.90;;;;;;8224909;28;20376;-78
2023/02/02 05:51:34;;;;;;;4.82;1.35;;;3.10;99.90;;;;;;8215126;28;20022;-79
2023/02/02 05:55:34;;;;;;;4.20;1.58;;;3.20;99.90;;;;;;8224692;28;20054;-78
2023/02/02 05:59:35;;;;;;;5.68;1.58;;;3.30;99.90;;;;;;8227497;28;20718;-79
2023/02/02 06:03:35;;;;;;;4.35;0.90;;;3.30;99.90;;;;;;8227749;28;20054;-79
2023/02/02 06:07:36;;;;;;;1.00;0.68;;;3.40;99.90;;;;;;8227460;28;20023;-79
2023/02/02 06:11:38;;;;;;;1.58;1.05;;;3.40;99.90;;;;;;8227625;28;20047;-79
2023/02/02 06:15:40;;;;;;;4.90;1.65;;;3.50;99.90;;;;;;8227869;28;20097;-78
2023/02/02 06:19:41;;;;;;;6.13;1.70;;;3.50;99.90;;;;;;8226626;28;20038;-78
2023/02/02 06:23:44;;;;;;;3.10;1.00;;;3.50;99.90;;;;;;8227293;28;20052;-78
2023/02/02 06:27:45;;;;;;;4.38;0.70;;;3.50;99.90;;;;;;8227382;28;20506;-78
2023/02/02 06:31:45;;;;;;;5.28;1.48;;;3.50;99.90;;;;;;8226958;28;20030;-78
2023/02/02 06:35:46;;;;;;;2.25;1.08;;;3.40;99.90;;;;;;8226285;28;20505;-79
2023/02/02 06:39:47;;;;;;;3.83;1.02;;;3.50;99.90;;;;;;8232687;28;20026;-79
2023/02/02 06:43:48;;;;;;;3.88;1.52;;;3.50;99.90;;;;;;8232505;28;20023;-79
2023/02/02 06:47:48;;;;;;;2.67;1.23;;;3.60;99.90;;;;;;8232413;28;20043;-79
2023/02/02 06:51:49;;;;;;;6.75;1.73;;;3.60;99.90;;;;;;8231908;28;20487;-78
2023/02/02 06:56:04;;;;;;;4.13;1.85;;;3.60;99.90;;;;;;8233324;28;20027;-79
2023/02/02 07:00:05;;;;;;;7.32;1.80;;;3.60;99.90;;;;;;8226267;28;20054;-78
2023/02/02 07:04:05;;;;;;;4.65;1.83;;;3.70;99.90;;;;;;8230650;28;20507;-79
2023/02/02 07:08:06;;;;;;;4.53;1.52;;;3.70;99.90;;;;;;8230777;28;20027;-78
2023/02/02 07:12:06;;;;;;;6.03;1.65;;;3.70;99.90;;;;;;8231436;28;20372;-79
2023/02/02 07:16:08;;;;;;;3.90;0.75;;;3.80;99.90;;;;;;8231142;28;20027;-79
2023/02/02 07:20:09;;;;;;;5.85;1.50;;;3.90;99.90;;;;;;8231048;28;20121;-79
2023/02/02 07:24:10;;;;;;;3.00;1.73;;;3.90;99.90;;;;;;8231835;28;20035;-78
2023/02/02 07:28:10;;;;;;;3.50;1.40;;;3.90;99.90;;;;;;8230051;28;20034;-78
2023/02/02 07:32:12;;;;;;;3.78;1.70;;;3.90;99.90;;;;;;8230476;28;20022;-79
2023/02/02 07:36:17;;;;;;;3.70;1.75;;;4.00;99.90;;;;;;8230042;28;20029;-79
2023/02/02 07:40:18;;;;;;;3.05;1.33;;;4.00;99.90;;;;;;8231121;28;20037;-79
2023/02/02 07:44:18;;;;;;;5.03;1.50;;;3.90;99.90;;;;;;8231436;28;20019;-79
2023/02/02 07:48:19;;;;;;;4.20;1.40;;;4.00;99.90;;;;;;8232391;28;20097;-79
2023/02/02 07:52:19;;;;;;;3.50;1.27;;;3.90;99.90;;;;;;8229895;28;20038;-78
2023/02/02 07:56:23;;;;;;;4.65;1.45;;;4.00;99.90;;;;;;8229984;28;20027;-79
2023/02/02 08:00:24;;;;;;;3.30;1.15;;;4.10;99.90;;;;;;8230289;28;20089;-79
2023/02/02 08:04:25;;;;;;;5.13;1.20;;;4.00;99.90;;;;;;8228685;28;20031;-79
2023/02/02 08:08:25;;;;;;;3.13;1.50;;;4.10;99.90;;;;;;8231312;28;20502;-79
2023/02/02 08:12:27;;;;;;;5.47;1.55;;;4.10;99.90;;;;;;8228559;28;20021;-79
2023/02/02 08:16:29;;;;;;;4.03;1.50;;;4.20;99.90;;;;;;8230087;28;20478;-79
2023/02/02 08:20:30;;;;;;;7.13;2.15;;;4.20;99.90;;;;;;8224066;28;20022;-79
2023/02/02 08:24:30;;;;;;;6.40;2.15;;;4.20;99.90;;;;;;8228011;28;20037;-79
2023/02/02 08:28:31;;;;;;;2.65;1.10;;;4.20;99.90;;;;;;8230008;28;20035;-79
2023/02/02 08:32:31;;;;;;;5.95;1.48;;;4.20;99.90;;;;;;8228940;28;20021;-79
2023/02/02 08:36:34;;;;;;;1.65;1.15;;;4.20;99.90;;;;;;8228173;28;20054;-79
2023/02/02 08:40:34;;;;;;;4.25;1.33;;;4.20;99.90;;;;;;8228278;28;20027;-79
2023/02/02 08:44:35;;;;;;;7.97;1.98;;;4.30;99.90;;;;;;8227728;28;20023;-79
2023/02/02 08:48:35;;;;;;;4.20;1.40;;;4.30;99.90;;;;;;8228117;28;20066;-78
2023/02/02 08:52:37;;;;;;;5.13;1.90;;;4.30;99.90;;;;;;8227893;28;20054;-79
2023/02/02 08:56:38;;;;;;;3.63;1.70;;;4.30;99.90;;;;;;8244542;28;20030;-78
2023/02/02 09:00:38;;;;;;;9.88;2.00;;;4.40;99.90;;;;;;8228138;28;20512;-79
2023/02/02 09:04:44;;;;;;;7.28;2.55;;;4.50;99.90;;;;;;8227871;28;20129;-79
2023/02/02 09:08:45;;;;;;;6.20;1.85;;;4.50;99.90;;;;;;8229940;28;20014;-79
2023/02/02 09:12:46;;;;;;;2.15;1.30;;;4.50;99.90;;;;;;8229165;28;20019;-78
2023/02/02 09:16:46;;;;;;;5.43;1.77;;;4.40;99.90;;;;;;8229170;28;20042;-79
2023/02/02 09:20:47;;;;;;;2.70;1.67;;;4.30;99.90;;;;;;8227617;28;20065;-79
2023/02/02 09:24:47;;;;;;;2.55;1.50;;;4.40;99.90;;;;;;8226941;28;20054;-79
2023/02/02 09:28:53;;;;;;;4.82;1.63;;;4.50;99.90;;;;;;8230331;28;20066;-79
2023/02/02 09:32:54;;;;;;;2.58;1.17;;;4.60;99.90;;;;;;8231162;28;20022;-79
2023/02/02 09:36:54;;;;;;;3.20;1.48;;;4.80;99.90;;;;;;8233234;28;20031;-79
2023/02/02 09:40:55;;;;;;;6.97;1.65;;;4.80;99.90;;;;;;8232845;28;20034;-79
2023/02/02 09:45:06;;;;;;;5.72;1.90;;;4.60;99.90;;;;;;8233179;28;20027;-79
2023/02/02 09:49:16;;;;;;;1.95;1.67;;;4.60;99.90;;;;;;8229530;28;20050;-79
2023/02/02 09:53:33;;;;;;;3.30;1.70;;;4.60;99.90;;;;;;8228413;28;20022;-79
2023/02/02 09:57:42;;;;;;;8.40;1.92;;;4.60;99.90;;;;;;8230983;28;20054;-78
2023/02/02 10:01:44;;;;;;;3.67;1.35;;;4.80;99.90;;;;;;8228658;28;20019;-79
2023/02/02 10:06:04;;;;;;;2.92;1.65;;;4.70;99.90;;;;;;8229885;28;20050;-79
2023/02/02 10:10:25;;;;;;;6.65;2.10;;;4.90;99.90;;;;;;8229203;28;20031;-79
2023/02/02 10:14:31;;;;;;;4.00;1.30;;;4.90;99.90;;;;;;8233263;28;20050;-78
2023/02/02 10:18:57;;;;;;;4.45;1.50;;;5.00;99.90;;;;;;8235821;28;20054;-79
2023/02/02 10:23:08;;;;;;;7.80;1.90;;;5.10;99.90;;;;;;8234883;28;20518;-78
2023/02/02 10:27:14;;;;;;;3.05;1.27;;;5.00;99.90;;;;;;8233639;28;20027;-78
2023/02/02 10:31:32;;;;;;;4.03;1.83;;;5.10;99.90;;;;;;8234601;28;20442;-79
2023/02/02 10:36:06;;;;;;;2.03;1.08;;;5.30;99.90;;;;;;8234373;28;20022;-79
2023/02/02 10:40:16;;;;;;;2.17;1.25;;;5.50;99.90;;;;;;8235027;28;20109;-78
2023/02/02 10:44:23;;;;;;;4.32;1.27;;;5.60;99.90;;;;;;8234517;28;20513;-79
2023/02/02 10:48:31;;;;;;;5.22;2.00;;;5.60;99.90;;;;;;8234128;28;20118;-79
2023/02/02 10:52:33;;;;;;;4.03;1.50;;;5.70;99.90;;;;;;8234842;28;20019;-78
2023/02/02 10:56:41;;;;;;;9.95;1.60;;;5.70;99.90;;;;;;8234909;28;20099;-79
2023/02/02 11:00:50;;;;;;;6.18;1.48;;;5.70;99.90;;;;;;8235123;28;20392;-78
2023/02/02 11:09:12;;;;;;;1.73;1.08;;;5.70;99.90;;;;;;8235194;28;20049;-79
2023/02/02 11:13:30;;;;;;;5.40;1.05;;;5.90;99.90;;;;;;8233368;28;20030;-79
2023/02/02 11:17:32;;;;;;;3.75;1.65;;;6.00;99.90;;;;;;8233187;28;20566;-78
2023/02/02 11:21:34;;;;;;;3.70;1.30;;;5.90;99.90;;;;;;8233658;28;20086;-79
2023/02/02 11:25:36;;;;;;;4.22;0.95;;;6.00;99.90;;;;;;8231372;28;20031;-79
2023/02/02 11:29:58;;;;;;;1.98;0.98;;;6.00;99.90;;;;;;8232907;28;20031;-79
2023/02/02 11:34:17;;;;;;;4.53;1.30;;;5.90;99.90;;;;;;8233549;28;20516;-79
2023/02/02 11:38:17;;;;;;;3.97;0.98;;;5.90;99.90;;;;;;8233283;28;20023;-79
2023/02/02 11:42:23;;;;;;;1.73;0.73;;;5.70;99.90;;;;;;8231090;28;20042;-79
2023/02/02 11:46:28;;;;;;;5.47;1.23;;;5.60;99.90;;;;;;8234421;28;20026;-79
2023/02/02 11:50:28;;;;;;;4.03;1.40;;;5.80;99.90;;;;;;8227811;28;20510;-79
2023/02/02 11:54:34;;;;;;;2.15;1.20;;;5.80;99.90;;;;;;8230988;28;20023;-78
2023/02/02 11:58:49;;;;;;;3.28;1.05;;;5.90;99.90;;;;;;8233693;28;20018;-79
2023/02/02 12:02:49;;;;;;;3.38;1.45;;;5.90;99.90;;;;;;8228565;28;20030;-78
2023/02/02 12:06:50;;;;;;;1.90;0.95;;;6.00;99.90;;;;;;8219498;28;20027;-78
2023/02/02 12:10:57;;;;;;;2.30;0.95;;;5.90;99.90;;;;;;8231443;28;20062;-79
2023/02/02 12:15:09;;;;;;;3.67;1.45;;;5.90;99.90;;;;;;8230549;28;20027;-78
2023/02/02 12:19:16;;;;;;;8.35;1.42;;;6.00;99.90;;;;;;8224217;28;20418;-79
2023/02/02 12:23:37;;;;;;;3.40;1.30;;;6.00;99.90;;;;;;8242738;28;20054;-79
2023/02/02 12:28:14;;;;;;;2.92;1.50;;;5.90;99.90;;;;;;8232226;28;20419;-80
2023/02/02 12:32:40;;;;;;;2.33;0.82;;;5.90;99.90;;;;;;8231070;28;20025;-79
2023/02/02 12:37:01;;;;;;;1.73;1.10;;;5.80;99.90;;;;;;8222273;28;20614;-79
2023/02/02 12:41:32;;;;;;;3.78;2.10;;;5.70;99.90;;;;;;8220096;28;20406;-79
2023/02/02 12:45:45;;;;;;;2.13;1.27;;;5.60;99.90;;;;;;8225178;28;20023;-80
2023/02/02 12:50:09;;;;;;;6.05;1.38;;;5.50;99.90;;;;;;8218742;28;20019;-79
2023/02/02 12:54:36;;;;;;;1.73;1.15;;;5.20;99.90;;;;;;8229435;28;20491;-79
2023/02/02 12:59:06;;;;;;;3.33;1.23;;;5.20;99.90;;;;;;8226843;28;20096;-80
2023/02/02 13:03:51;;;;;;;1.40;1.03;;;5.30;99.90;;;;;;8221388;28;20507;-79
2023/02/02 13:07:56;;;;;;;2.72;1.13;;;5.20;99.90;;;;;;8225684;28;20527;-80
2023/02/02 13:12:08;;;;;;;3.47;1.35;;;5.20;99.90;;;;;;8227962;28;20026;-79
2023/02/02 13:16:11;;;;;;;7.05;1.50;;;5.10;99.90;;;;;;8220917;28;20034;-78
2023/02/02 13:20:35;;;;;;;3.38;1.52;;;5.00;99.90;;;;;;8220413;28;20126;-79
2023/02/02 13:24:40;;;;;;;2.22;1.27;;;4.90;99.90;;;;;;8229158;28;20023;-78
2023/02/02 13:28:49;;;;;;;3.35;1.17;;;4.90;99.90;;;;;;8228025;28;20027;-79
2023/02/02 13:32:52;;;;;;;4.70;1.00;;;4.90;99.90;;;;;;8230441;28;20022;-79
2023/02/02 13:37:15;;;;;;;3.65;1.50;;;5.00;99.90;;;;;;8228698;28;20033;-80
2023/02/02 13:41:17;;;;;;;0.63;0.47;;;4.90;99.90;;;;;;8215497;28;20115;-78
2023/02/02 13:45:34;;;;;;;4.07;1.90;;;4.90;99.90;;;;;;8222155;28;20483;-79
2023/02/02 13:49:49;;;;;;;2.42;1.33;;;4.90;99.90;;;;;;8236848;28;20102;-79
2023/02/02 13:53:50;;;;;;;4.47;1.08;;;4.80;99.90;;;;;;8225607;28;20376;-79
2023/02/02 13:58:21;;;;;;;2.75;1.10;;;4.80;99.90;;;;;;8242264;28;20030;-78
2023/02/02 14:02:25;;;;;;;5.25;1.20;;;4.80;99.90;;;;;;8227644;28;20148;-80
2023/02/02 14:06:27;;;;;;;1.77;0.98;;;4.60;99.90;;;;;;8235972;28;20070;-79
2023/02/02 14:10:36;;;;;;;3.13;1.20;;;4.80;99.90;;;;;;8236475;28;20110;-79
2023/02/02 14:14:44;;;;;;;1.25;1.00;;;4.80;99.90;;;;;;8229730;28;20655;-79
2023/02/02 14:18:50;;;;;;;4.40;0.80;;;4.70;99.90;;;;;;8239336;28;20395;-79
2023/02/02 14:22:51;;;;;;;2.78;1.00;;;4.80;99.90;;;;;;8236278;28;20018;-79
2023/02/02 14:27:07;;;;;;;3.10;1.10;;;4.70;99.90;;;;;;8234819;28;20533;-80
2023/02/02 14:31:28;;;;;;;1.52;1.10;;;4.70;99.90;;;;;;8222201;28;20027;-79
2023/02/02 14:35:30;;;;;;;3.55;0.90;;;4.70;99.90;;;;;;8236709;28;20027;-79
2023/02/02 14:39:30;;;;;;;7.63;2.10;;;4.80;99.90;;;;;;8251730;28;20050;-79
2023/02/02 14:43:45;;;;;;;2.63;1.15;;;4.70;99.90;;;;;;8235238;28;20034;-79
2023/02/02 14:47:51;;;;;;;1.50;0.50;;;4.70;99.90;;;;;;8233665;28;20402;-79
2023/02/02 14:51:55;;;;;;;3.83;1.10;;;4.70;99.90;;;;;;8239644;28;20031;-78
2023/02/02 14:56:01;;;;;;;2.25;1.02;;;4.70;99.90;;;;;;8234640;28;20033;-80
2023/02/02 15:00:02;;;;;;;1.35;0.70;;;4.70;99.90;;;;;;8223695;28;20557;-79
2023/02/02 15:04:18;;;;;;;1.77;0.95;;;4.70;99.90;;;;;;8229066;28;20117;-78
2023/02/02 15:08:21;;;;;;;3.45;1.10;;;4.70;99.90;;;;;;8231341;28;20022;-79
2023/02/02 15:12:44;;;;;;;2.10;1.05;;;4.60;99.90;;;;;;8231374;28;20376;-79
2023/02/02 15:16:45;;;;;;;4.43;1.17;;;4.60;99.90;;;;;;8229157;28;20255;-80
2023/02/02 15:20:48;;;;;;;1.73;0.55;;;4.60;99.90;;;;;;8227931;28;20426;-78
2023/02/02 15:24:50;;;;;;;1.50;0.93;;;4.60;99.90;;;;;;8230145;28;20082;-79
2023/02/02 15:29:41;;;;;;;2.90;0.80;;;4.50;99.90;;;;;;8233894;28;20456;-89
2023/02/02 15:33:44;;;;;;;5.72;1.67;;;4.60;99.90;;;;;;8193716;28;20043;-89
2023/02/02 15:37:48;;;;;;;3.15;1.23;;;5.00;99.90;;;;;;8232689;28;20043;-89
2023/02/02 15:42:51;;;;;;;4.03;1.05;;;4.60;99.90;;;;;;8238062;28;20506;-82
2023/02/02 15:46:14;;;;;;;3.15;1.40;;;4.60;99.90;;;;;;8239402;28;20035;-82
2023/02/02 15:50:20;;;;;;;2.28;1.20;;;4.60;99.90;;;;;;8237119;28;20019;-81
2023/02/02 15:54:28;;;;;;;5.65;1.40;;;4.60;99.90;;;;;;8227931;28;20023;-81
2023/02/02 15:58:33;;;;;;;3.20;1.38;;;4.50;99.90;;;;;;8234619;28;20019;-82
2023/02/02 16:02:39;;;;;;;4.28;1.33;;;4.60;99.90;;;;;;8231609;28;20530;-82
2023/02/02 16:06:41;;;;;;;4.72;1.10;;;4.50;99.90;;;;;;8231547;28;20165;-82
2023/02/02 16:10:42;;;;;;;6.53;1.33;;;4.50;99.90;;;;;;8228745;28;20077;-82
2023/02/02 16:14:49;;;;;;;3.95;1.52;;;4.40;99.90;;;;;;8235640;28;20019;-80
2023/02/02 16:19:07;;;;;;;2.80;0.90;;;4.50;99.90;;;;;;8225321;28;20023;-82
2023/02/02 16:23:14;;;;;;;1.10;0.63;;;4.60;99.90;;;;;;8246167;28;20043;-83
2023/02/02 16:27:21;;;;;;;2.38;0.70;;;4.50;99.90;;;;;;8223392;28;20105;-83
2023/02/02 16:31:21;;;;;;;3.10;1.48;;;4.50;99.90;;;;;;8234087;28;20038;-79
2023/02/02 16:35:35;;;;;;;2.90;1.30;;;4.50;99.90;;;;;;8234006;28;20398;-79
2023/02/02 16:39:35;;;;;;;2.72;1.50;;;4.50;99.90;;;;;;8230469;28;20038;-80
2023/02/02 16:43:40;;;;;;;2.72;1.40;;;4.50;99.90;;;;;;8226541;28;20030;-79
2023/02/02 16:47:41;;;;;;;8.10;2.17;;;4.50;99.90;;;;;;8224569;28;20023;-78
2023/02/02 16:51:42;;;;;;;4.70;2.35;;;4.40;99.90;;;;;;8221322;28;20115;-78
2023/02/02 16:55:47;;;;;;;7.57;2.55;;;4.50;99.90;;;;;;8224369;28;20050;-79
2023/02/02 16:59:54;;;;;;;4.75;1.92;;;4.50;99.90;;;;;;8232392;28;20030;-79
2023/02/02 17:03:54;;;;;;;3.33;1.50;;;4.50;99.90;;;;;;8227535;28;20031;-80
2023/02/02 17:08:04;;;;;;;6.88;1.75;;;4.50;99.90;;;;;;8221054;28;20082;-79
2023/02/02 17:12:15;;;;;;;5.77;1.50;;;4.50;99.90;;;;;;8219806;28;20034;-78
2023/02/02 17:16:21;;;;;;;4.15;1.52;;;4.50;99.90;;;;;;8214608;28;20277;-80
2023/02/02 17:20:22;;;;;;;3.95;2.30;;;4.40;99.90;;;;;;8221301;28;20037;-79
2023/02/02 17:24:22;;;;;;;2.75;1.35;;;4.40;99.90;;;;;;8225932;28;20368;-79
2023/02/02 17:28:25;;;;;;;6.72;3.05;;;4.40;99.90;;;;;;8233039;28;20114;-79
2023/02/02 17:32:25;;;;;;;7.30;1.83;;;4.40;99.90;;;;;;8227717;28;20491;-79
2023/02/02 17:36:26;;;;;;;4.78;2.17;;;4.40;99.90;;;;;;8231548;28;20029;-79
2023/02/02 17:40:26;;;;;;;5.07;2.15;;;4.30;99.90;;;;;;8227454;28;20026;-79
2023/02/02 17:44:27;;;;;;;8.68;2.30;;;4.30;99.90;;;;;;8231831;28;20063;-79
2023/02/02 17:48:28;;;;;;;5.28;1.40;;;4.30;99.90;;;;;;8230138;28;20514;-78
2023/02/02 17:52:28;;;;;;;2.63;1.25;;;4.30;99.90;;;;;;8227628;28;20015;-78
2023/02/02 17:56:29;;;;;;;4.15;1.52;;;4.20;99.90;;;;;;8225745;28;20053;-81
2023/02/02 18:00:29;;;;;;;3.85;1.40;;;4.30;99.90;;;;;;8220315;28;20035;-80
2023/02/02 18:04:30;;;;;;;2.95;1.40;;;4.20;99.90;;;;;;8235272;28;20034;-80
2023/02/02 18:08:31;;;;;;;10.65;2.13;;;4.20;99.90;;;;;;8221389;28;20101;-80
2023/02/02 18:12:33;;;;;;;8.65;2.60;;;4.30;99.90;;;;;;8218514;28;20031;-79
2023/02/02 18:16:34;;;;;;;3.70;1.40;;;4.30;99.90;;;;;;8206556;28;20038;-77
2023/02/02 18:20:37;;;;;;;6.35;2.13;;;4.30;99.90;;;;;;8207524;28;20054;-78
2023/02/02 18:24:38;;;;;;;5.60;1.70;;;4.30;99.90;;;;;;8207004;28;20170;-79
2023/02/02 18:28:39;;;;;;;1.63;1.17;;;4.40;99.90;;;;;;8208515;28;20027;-77
2023/02/02 18:32:41;;;;;;;4.72;1.85;;;4.40;99.90;;;;;;8210723;28;20031;-77
2023/02/02 18:36:41;;;;;;;5.57;1.77;;;4.50;99.90;;;;;;8226294;28;20030;-77
2023/02/02 18:40:42;;;;;;;1.95;1.08;;;4.60;99.90;;;;;;8215885;28;20085;-79
2023/02/02 18:44:43;;;;;;;3.53;1.50;;;4.60;99.90;;;;;;8215582;28;20403;-79
2023/02/02 18:48:44;;;;;;;3.35;1.15;;;4.60;99.90;;;;;;8203986;28;20034;-78
2023/02/02 18:52:44;;;;;;;0.95;0.85;;;4.60;99.90;;;;;;8209720;28;20029;-78
2023/02/02 18:56:45;;;;;;;3.58;1.45;;;4.60;99.90;;;;;;8207517;28;20635;-77
2023/02/02 19:00:45;;;;;;;3.60;1.55;;;4.60;99.90;;;;;;8210752;28;20126;-78
2023/02/02 19:09:05;;;;;;;3.55;1.58;;;4.70;99.90;;;;;;8208256;28;20166;-78
2023/02/02 19:13:19;;;;;;;2.25;0.88;;;4.70;99.90;;;;;;8222380;28;20062;-78
2023/02/02 19:17:23;;;;;;;2.17;1.40;;;4.70;99.90;;;;;;8219252;28;20097;-78
2023/02/02 19:21:28;;;;;;;5.50;1.48;;;4.70;99.90;;;;;;8211517;28;20038;-77
2023/02/02 19:25:29;;;;;;;4.10;0.90;;;4.80;99.90;;;;;;8209850;28;20058;-78
2023/02/02 19:29:34;;;;;;;2.45;1.17;;;4.80;99.90;;;;;;8211404;28;20046;-80
2023/02/02 19:33:47;;;;;;;3.67;1.65;;;4.80;99.90;;;;;;8215501;28;20133;-77
2023/02/02 19:37:53;;;;;;;3.72;0.95;;;4.90;99.90;;;;;;8229743;28;20026;-77
2023/02/02 19:41:57;;;;;;;2.88;1.00;;;4.90;99.90;;;;;;8216619;28;20059;-77
2023/02/02 19:45:59;;;;;;;6.93;1.83;;;4.80;99.90;;;;;;8210228;28;20066;-79
2023/02/02 19:50:17;;;;;;;3.30;1.52;;;4.80;99.90;;;;;;8216151;28;20069;-79
2023/02/02 19:54:36;;;;;;;2.78;1.17;;;4.70;99.90;;;;;;8215377;28;20054;-78
2023/02/02 19:58:36;;;;;;;2.58;1.00;;;4.60;99.90;;;;;;8216534;28;20407;-78
2023/02/02 20:03:04;;;;;;;1.98;1.02;;;4.80;99.90;;;;;;8217465;28;20034;-78
2023/02/02 20:07:13;;;;;;;5.40;0.93;;;4.80;99.90;;;;;;8214371;28;20034;-77
2023/02/02 20:11:35;;;;;;;2.63;1.33;;;4.90;99.90;;;;;;8211687;28;20078;-77
2023/02/02 20:15:38;;;;;;;4.05;1.20;;;4.90;99.90;;;;;;8211569;28;20030;-78
2023/02/02 20:19:41;;;;;;;3.40;1.10;;;4.70;99.90;;;;;;8213032;28;20035;-77
2023/02/02 20:23:43;;;;;;;3.03;1.25;;;4.80;99.90;;;;;;8210809;28;20031;-77
2023/02/02 20:27:44;;;;;;;2.28;1.23;;;4.70;99.90;;;;;;8210180;28;20113;-78
2023/02/02 20:31:46;;;;;;;3.00;1.42;;;4.80;99.90;;;;;;8207300;28;20031;-79
2023/02/02 20:35:47;;;;;;;1.25;1.00;;;4.80;99.90;;;;;;8211520;28;20023;-77
2023/02/02 20:39:55;;;;;;;2.67;1.00;;;4.80;99.90;;;;;;8210103;28;20090;-77
2023/02/02 20:43:55;;;;;;;1.77;1.38;;;4.90;99.90;;;;;;8208972;28;20031;-78
2023/02/02 20:47:56;;;;;;;2.42;0.82;;;4.90;99.90;;;;;;8218982;28;20073;-79
2023/02/02 20:51:59;;;;;;;3.55;1.20;;;4.80;99.90;;;;;;8212147;28;20031;-78
2023/02/02 20:56:01;;;;;;;1.85;1.20;;;4.80;99.90;;;;;;8216559;28;20031;-79
2023/02/02 21:00:01;;;;;;;5.80;1.20;;;4.80;99.90;;;;;;8222057;28;20025;-78
2023/02/02 21:04:05;;;;;;;1.65;0.98;;;4.70;99.90;;;;;;8217860;28;20041;-78
2023/02/02 21:08:06;;;;;;;5.40;1.40;;;4.70;99.90;;;;;;8217521;28;20027;-78
2023/02/02 21:12:07;;;;;;;3.13;1.55;;;4.60;99.90;;;;;;8213017;28;20515;-76
2023/02/02 21:16:07;;;;;;;2.95;1.20;;;4.50;99.90;;;;;;8216000;28;20047;-78
2023/02/02 21:20:09;;;;;;;2.45;1.27;;;4.50;99.90;;;;;;8213614;28;20110;-77
2023/02/02 21:24:10;;;;;;;3.90;0.70;;;4.50;99.90;;;;;;8216127;28;20134;-76
2023/02/02 21:28:10;;;;;;;4.05;1.13;;;4.50;99.90;;;;;;8226330;28;20032;-78
2023/02/02 21:32:11;;;;;;;3.22;0.90;;;4.40;99.90;;;;;;8223280;28;20037;-78
2023/02/02 21:36:32;;;;;;;3.90;1.13;;;4.30;99.90;;;;;;8218624;28;20038;-77
2023/02/02 21:40:33;;;;;;;3.22;1.02;;;4.30;99.90;;;;;;8216807;28;20078;-83
2023/02/02 21:44:36;;;;;;;4.05;1.50;;;4.30;99.90;;;;;;8223503;28;20038;-78
2023/02/02 21:48:38;;;;;;;2.47;1.20;;;4.40;99.90;;;;;;8228818;28;20082;-77
2023/02/02 21:52:39;;;;;;;3.58;1.17;;;4.40;99.90;;;;;;8222283;28;20011;-78
2023/02/02 21:56:40;;;;;;;2.17;0.95;;;4.50;99.90;;;;;;8221197;28;20030;-77
2023/02/02 22:00:41;;;;;;;4.07;1.10;;;4.40;99.90;;;;;;8223383;28;20395;-78